sensor_id;sensor_type;location;lat;lon;timestamp;temperature;humidity
3912;DHT22;1971;51.778;10.330;2023-06-22T00:02:00;15.50;99.90
3912;DHT22;1971;51.778;10.330;2023-06-22T00:04:30;15.50;99.90
3912;DHT22;1971;51.778;10.330;2023-06-22T00:07:03;15.40;99.90
3912;DHT22;1971;51.778;10.330;2023-06-22T00:09:33;15.40;99.90
3912;DHT22;1971;51.778;10.330;2023-06-22T00:12:04;15.40;99.90
3912;DHT22;1971;51.778;10.330;2023-06-22T00:14:34;15.40;99.90
3912;DHT22;1971;51.778;10.330;2023-06-22T00:17:04;15.10;99.90
3912;DHT22;1971;51.778;10.330;2023-06-22T00:19:34;15.20;99.90
3912;DHT22;1971;51.778;10.330;2023-06-22T00:22:10;15.20;99.90
3912;DHT22;1971;51.778;10.330;2023-06-22T00:24:40;15.30;99.90
3912;DHT22;1971;51.778;10.330;2023-06-22T00:27:10;15.40;99.90
3912;DHT22;1971;51.778;10.330;2023-06-22T00:29:40;15.60;99.90
3912;DHT22;1971;51.778;10.330;2023-06-22T00:32:10;15.70;99.90
3912;DHT22;1971;51.778;10.330;2023-06-22T00:34:40;15.70;99.90
3912;DHT22;1971;51.778;10.330;2023-06-22T00:37:14;15.60;99.90
3912;DHT22;1971;51.778;10.330;2023-06-22T00:39:44;15.60;99.90
3912;DHT22;1971;51.778;10.330;2023-06-22T00:42:14;15.80;99.90
3912;DHT22;1971;51.778;10.330;2023-06-22T00:53:03;15.10;99.90
3912;DHT22;1971;51.778;10.330;2023-06-22T01:00:17;15.20;99.90
3912;DHT22;1971;51.778;10.330;2023-06-22T01:02:47;15.20;99.90
3912;DHT22;1971;51.778;10.330;2023-06-22T01:05:20;15.30;99.90
3912;DHT22;1971;51.778;10.330;2023-06-22T01:08:00;15.30;99.90
3912;DHT22;1971;51.778;10.330;2023-06-22T01:10:41;15.40;99.90
3912;DHT22;1971;51.778;10.330;2023-06-22T01:13:18;15.30;99.90
3912;DHT22;1971;51.778;10.330;2023-06-22T01:15:55;15.20;99.90
3912;DHT22;1971;51.778;10.330;2023-06-22T01:18:29;15.20;99.90
3912;DHT22;1971;51.778;10.330;2023-06-22T01:21:04;15.30;99.90
3912;DHT22;1971;51.778;10.330;2023-06-22T01:23:50;15.50;99.90
3912;DHT22;1971;51.778;10.330;2023-06-22T01:26:28;15.60;99.90
3912;DHT22;1971;51.778;10.330;2023-06-22T01:29:04;15.70;99.90
3912;DHT22;1971;51.778;10.330;2023-06-22T01:31:35;15.80;99.90
3912;DHT22;1971;51.778;10.330;2023-06-22T01:34:07;15.70;99.90
3912;DHT22;1971;51.778;10.330;2023-06-22T01:36:39;15.60;99.90
3912;DHT22;1971;51.778;10.330;2023-06-22T01:39:10;15.50;99.90
3912;DHT22;1971;51.778;10.330;2023-06-22T01:41:41;15.60;99.90
3912;DHT22;1971;51.778;10.330;2023-06-22T01:44:17;15.60;99.90
3912;DHT22;1971;51.778;10.330;2023-06-22T01:46:50;15.70;99.90
3912;DHT22;1971;51.778;10.330;2023-06-22T01:49:21;15.70;99.90
3912;DHT22;1971;51.778;10.330;2023-06-22T01:51:51;15.70;99.90
3912;DHT22;1971;51.778;10.330;2023-06-22T01:54:21;16.00;99.90
3912;DHT22;1971;51.778;10.330;2023-06-22T01:56:51;16.20;99.90
3912;DHT22;1971;51.778;10.330;2023-06-22T01:59:28;16.10;99.90
3912;DHT22;1971;51.778;10.330;2023-06-22T02:02:04;16.00;99.90
3912;DHT22;1971;51.778;10.330;2023-06-22T02:04:37;16.10;99.90
3912;DHT22;1971;51.778;10.330;2023-06-22T02:07:13;16.00;99.90
3912;DHT22;1971;51.778;10.330;2023-06-22T02:09:45;16.00;99.90
3912;DHT22;1971;51.778;10.330;2023-06-22T02:12:18;16.10;99.90
3912;DHT22;1971;51.778;10.330;2023-06-22T02:14:51;16.00;99.90
3912;DHT22;1971;51.778;10.330;2023-06-22T02:17:24;16.00;99.90
3912;DHT22;1971;51.778;10.330;2023-06-22T02:19:56;15.90;99.90
3912;DHT22;1971;51.778;10.330;2023-06-22T02:22:26;16.10;99.90
3912;DHT22;1971;51.778;10.330;2023-06-22T02:24:56;16.10;99.90
3912;DHT22;1971;51.778;10.330;2023-06-22T02:27:26;16.20;99.90
3912;DHT22;1971;51.778;10.330;2023-06-22T02:29:59;16.40;99.90
3912;DHT22;1971;51.778;10.330;2023-06-22T02:32:30;16.30;99.90
3912;DHT22;1971;51.778;10.330;2023-06-22T02:35:01;16.40;99.90
3912;DHT22;1971;51.778;10.330;2023-06-22T02:37:33;16.30;99.90
3912;DHT22;1971;51.778;10.330;2023-06-22T02:40:07;16.30;99.90
3912;DHT22;1971;51.778;10.330;2023-06-22T02:42:39;16.40;99.90
3912;DHT22;1971;51.778;10.330;2023-06-22T02:45:13;16.40;99.90
3912;DHT22;1971;51.778;10.330;2023-06-22T02:47:44;16.40;99.90
3912;DHT22;1971;51.778;10.330;2023-06-22T02:50:15;16.40;99.90
3912;DHT22;1971;51.778;10.330;2023-06-22T02:52:46;16.40;99.90
3912;DHT22;1971;51.778;10.330;2023-06-22T02:55:16;16.40;99.90
3912;DHT22;1971;51.778;10.330;2023-06-22T02:57:53;16.30;99.90
3912;DHT22;1971;51.778;10.330;2023-06-22T03:00:32;16.40;99.90
3912;DHT22;1971;51.778;10.330;2023-06-22T03:03:02;16.50;99.90
3912;DHT22;1971;51.778;10.330;2023-06-22T03:05:32;16.50;99.90
3912;DHT22;1971;51.778;10.330;2023-06-22T03:08:03;16.60;99.90
3912;DHT22;1971;51.778;10.330;2023-06-22T03:10:34;16.70;99.90
3912;DHT22;1971;51.778;10.330;2023-06-22T03:13:04;16.80;99.90
3912;DHT22;1971;51.778;10.330;2023-06-22T03:15:37;16.60;99.90
3912;DHT22;1971;51.778;10.330;2023-06-22T03:18:07;16.70;99.90
3912;DHT22;1971;51.778;10.330;2023-06-22T03:20:37;16.60;99.90
3912;DHT22;1971;51.778;10.330;2023-06-22T03:23:08;16.40;99.90
3912;DHT22;1971;51.778;10.330;2023-06-22T03:25:39;16.40;99.90
3912;DHT22;1971;51.778;10.330;2023-06-22T03:28:08;16.40;99.90
3912;DHT22;1971;51.778;10.330;2023-06-22T03:30:41;16.50;99.90
3912;DHT22;1971;51.778;10.330;2023-06-22T03:33:11;16.70;99.90
3912;DHT22;1971;51.778;10.330;2023-06-22T03:35:41;16.70;99.90
3912;DHT22;1971;51.778;10.330;2023-06-22T03:38:11;16.70;99.90
3912;DHT22;1971;51.778;10.330;2023-06-22T03:40:41;16.50;99.90
3912;DHT22;1971;51.778;10.330;2023-06-22T03:43:13;16.50;99.90
3912;DHT22;1971;51.778;10.330;2023-06-22T03:45:45;16.70;99.90
3912;DHT22;1971;51.778;10.330;2023-06-22T03:48:15;16.80;99.90
3912;DHT22;1971;51.778;10.330;2023-06-22T03:50:46;16.90;99.90
3912;DHT22;1971;51.778;10.330;2023-06-22T03:53:16;17.00;99.90
3912;DHT22;1971;51.778;10.330;2023-06-22T03:55:50;17.00;99.90
3912;DHT22;1971;51.778;10.330;2023-06-22T03:58:21;16.90;99.90
3912;DHT22;1971;51.778;10.330;2023-06-22T04:00:53;16.90;99.90
3912;DHT22;1971;51.778;10.330;2023-06-22T04:03:23;16.80;99.90
3912;DHT22;1971;51.778;10.330;2023-06-22T04:05:54;16.80;99.90
3912;DHT22;1971;51.778;10.330;2023-06-22T04:08:24;17.00;99.90
3912;DHT22;1971;51.778;10.330;2023-06-22T04:10:54;17.00;99.90
3912;DHT22;1971;51.778;10.330;2023-06-22T04:13:25;17.00;99.90
3912;DHT22;1971;51.778;10.330;2023-06-22T04:15:57;17.10;99.90
3912;DHT22;1971;51.778;10.330;2023-06-22T04:18:28;17.00;99.90
3912;DHT22;1971;51.778;10.330;2023-06-22T04:20:58;17.10;99.90
3912;DHT22;1971;51.778;10.330;2023-06-22T04:23:28;17.20;99.90
3912;DHT22;1971;51.778;10.330;2023-06-22T04:25:58;17.30;99.90
3912;DHT22;1971;51.778;10.330;2023-06-22T04:28:28;17.30;99.90
3912;DHT22;1971;51.778;10.330;2023-06-22T04:31:04;17.50;99.90
3912;DHT22;1971;51.778;10.330;2023-06-22T04:33:34;17.60;99.90
3912;DHT22;1971;51.778;10.330;2023-06-22T04:36:08;17.70;99.90
3912;DHT22;1971;51.778;10.330;2023-06-22T04:38:40;17.70;99.90
3912;DHT22;1971;51.778;10.330;2023-06-22T04:41:11;17.70;99.90
3912;DHT22;1971;51.778;10.330;2023-06-22T04:43:51;17.70;99.90
3912;DHT22;1971;51.778;10.330;2023-06-22T04:46:24;17.80;99.90
3912;DHT22;1971;51.778;10.330;2023-06-22T04:48:54;17.90;99.90
3912;DHT22;1971;51.778;10.330;2023-06-22T04:51:25;18.00;99.90
3912;DHT22;1971;51.778;10.330;2023-06-22T04:53:57;18.00;99.90
3912;DHT22;1971;51.778;10.330;2023-06-22T04:56:28;18.00;99.90
3912;DHT22;1971;51.778;10.330;2023-06-22T04:58:58;18.10;99.90
3912;DHT22;1971;51.778;10.330;2023-06-22T05:01:31;18.10;99.90
3912;DHT22;1971;51.778;10.330;2023-06-22T05:04:02;18.30;99.90
3912;DHT22;1971;51.778;10.330;2023-06-22T05:06:36;18.30;99.90
3912;DHT22;1971;51.778;10.330;2023-06-22T05:09:07;18.30;99.90
3912;DHT22;1971;51.778;10.330;2023-06-22T05:11:39;18.20;99.90
3912;DHT22;1971;51.778;10.330;2023-06-22T05:14:09;18.20;99.90
3912;DHT22;1971;51.778;10.330;2023-06-22T05:16:43;18.20;99.90
3912;DHT22;1971;51.778;10.330;2023-06-22T05:19:13;18.20;99.90
3912;DHT22;1971;51.778;10.330;2023-06-22T05:21:44;18.40;99.90
3912;DHT22;1971;51.778;10.330;2023-06-22T05:24:14;18.30;99.90
3912;DHT22;1971;51.778;10.330;2023-06-22T05:26:44;18.40;99.90
3912;DHT22;1971;51.778;10.330;2023-06-22T05:29:14;18.70;99.90
3912;DHT22;1971;51.778;10.330;2023-06-22T05:31:47;18.60;99.90
3912;DHT22;1971;51.778;10.330;2023-06-22T05:34:17;18.50;99.90
3912;DHT22;1971;51.778;10.330;2023-06-22T05:36:47;18.50;99.90
3912;DHT22;1971;51.778;10.330;2023-06-22T05:39:17;18.40;99.90
3912;DHT22;1971;51.778;10.330;2023-06-22T05:41:47;18.50;99.90
3912;DHT22;1971;51.778;10.330;2023-06-22T05:44:17;18.80;99.90
3912;DHT22;1971;51.778;10.330;2023-06-22T05:46:50;18.90;99.90
3912;DHT22;1971;51.778;10.330;2023-06-22T05:49:20;18.80;99.90
3912;DHT22;1971;51.778;10.330;2023-06-22T05:51:56;18.80;99.90
3912;DHT22;1971;51.778;10.330;2023-06-22T05:54:27;18.90;99.90
3912;DHT22;1971;51.778;10.330;2023-06-22T05:56:57;19.00;99.90
3912;DHT22;1971;51.778;10.330;2023-06-22T05:59:27;19.00;99.90
3912;DHT22;1971;51.778;10.330;2023-06-22T06:02:00;19.00;99.90
3912;DHT22;1971;51.778;10.330;2023-06-22T06:04:30;19.00;99.90
3912;DHT22;1971;51.778;10.330;2023-06-22T06:06:59;19.00;99.90
3912;DHT22;1971;51.778;10.330;2023-06-22T06:09:29;19.10;99.90
3912;DHT22;1971;51.778;10.330;2023-06-22T06:11:59;19.40;59.80
3912;DHT22;1971;51.778;10.330;2023-06-22T06:14:30;19.50;59.70
3912;DHT22;1971;51.778;10.330;2023-06-22T06:17:03;19.70;1.00
3912;DHT22;1971;51.778;10.330;2023-06-22T06:19:33;19.80;1.00
3912;DHT22;1971;51.778;10.330;2023-06-22T06:22:03;19.80;1.00
3912;DHT22;1971;51.778;10.330;2023-06-22T06:24:33;19.80;1.00
3912;DHT22;1971;51.778;10.330;2023-06-22T06:27:04;19.90;23.20
3912;DHT22;1971;51.778;10.330;2023-06-22T06:29:35;20.10;8.10
3912;DHT22;1971;51.778;10.330;2023-06-22T06:32:08;20.20;1.00
3912;DHT22;1971;51.778;10.330;2023-06-22T06:34:39;20.30;1.00
3912;DHT22;1971;51.778;10.330;2023-06-22T06:37:10;20.50;1.00
3912;DHT22;1971;51.778;10.330;2023-06-22T06:39:40;20.60;1.00
3912;DHT22;1971;51.778;10.330;2023-06-22T06:42:10;20.60;99.90
3912;DHT22;1971;51.778;10.330;2023-06-22T06:44:41;20.70;99.90
3912;DHT22;1971;51.778;10.330;2023-06-22T06:47:14;20.80;99.90
3912;DHT22;1971;51.778;10.330;2023-06-22T06:49:44;20.90;99.90
3912;DHT22;1971;51.778;10.330;2023-06-22T06:52:14;21.00;99.90
3912;DHT22;1971;51.778;10.330;2023-06-22T06:54:44;21.10;99.90
3912;DHT22;1971;51.778;10.330;2023-06-22T06:57:14;21.20;94.50
3912;DHT22;1971;51.778;10.330;2023-06-22T06:59:44;21.20;93.00
3912;DHT22;1971;51.778;10.330;2023-06-22T07:02:17;21.40;99.90
3912;DHT22;1971;51.778;10.330;2023-06-22T07:04:49;21.50;99.90
3912;DHT22;1971;51.778;10.330;2023-06-22T07:07:19;21.60;99.90
3912;DHT22;1971;51.778;10.330;2023-06-22T07:09:49;21.80;99.90
3912;DHT22;1971;51.778;10.330;2023-06-22T07:12:19;21.80;1.00
3912;DHT22;1971;51.778;10.330;2023-06-22T07:14:51;21.90;1.00
3912;DHT22;1971;51.778;10.330;2023-06-22T07:17:24;21.90;1.00
3912;DHT22;1971;51.778;10.330;2023-06-22T07:19:55;22.00;1.00
3912;DHT22;1971;51.778;10.330;2023-06-22T07:22:25;22.10;1.00
3912;DHT22;1971;51.778;10.330;2023-06-22T07:24:55;22.20;1.00
3912;DHT22;1971;51.778;10.330;2023-06-22T07:27:25;22.50;1.00
3912;DHT22;1971;51.778;10.330;2023-06-22T07:30:02;22.80;1.00
3912;DHT22;1971;51.778;10.330;2023-06-22T07:32:35;22.90;1.00
3912;DHT22;1971;51.778;10.330;2023-06-22T07:35:06;23.20;1.00
3912;DHT22;1971;51.778;10.330;2023-06-22T07:37:36;23.20;1.00
3912;DHT22;1971;51.778;10.330;2023-06-22T07:40:07;23.50;1.00
3912;DHT22;1971;51.778;10.330;2023-06-22T07:42:37;23.80;1.00
3912;DHT22;1971;51.778;10.330;2023-06-22T07:45:08;24.20;1.00
3912;DHT22;1971;51.778;10.330;2023-06-22T07:47:41;24.40;1.00
3912;DHT22;1971;51.778;10.330;2023-06-22T07:50:11;24.50;1.00
3912;DHT22;1971;51.778;10.330;2023-06-22T07:52:41;24.50;1.00
3912;DHT22;1971;51.778;10.330;2023-06-22T07:55:12;24.60;1.00
3912;DHT22;1971;51.778;10.330;2023-06-22T07:57:42;24.50;1.00
3912;DHT22;1971;51.778;10.330;2023-06-22T08:00:13;24.20;1.00
3912;DHT22;1971;51.778;10.330;2023-06-22T08:02:47;24.00;1.00
3912;DHT22;1971;51.778;10.330;2023-06-22T08:05:17;23.70;1.00
3912;DHT22;1971;51.778;10.330;2023-06-22T08:07:49;23.50;1.00
3912;DHT22;1971;51.778;10.330;2023-06-22T08:10:20;23.50;1.00
3912;DHT22;1971;51.778;10.330;2023-06-22T08:12:50;23.30;1.00
3912;DHT22;1971;51.778;10.330;2023-06-22T08:15:21;23.30;1.00
3912;DHT22;1971;51.778;10.330;2023-06-22T08:17:54;23.30;1.00
3912;DHT22;1971;51.778;10.330;2023-06-22T08:20:25;23.40;1.00
3912;DHT22;1971;51.778;10.330;2023-06-22T08:22:55;23.60;1.00
3912;DHT22;1971;51.778;10.330;2023-06-22T08:25:32;23.80;1.00
3912;DHT22;1971;51.778;10.330;2023-06-22T08:28:03;23.90;1.00
3912;DHT22;1971;51.778;10.330;2023-06-22T08:30:33;23.90;1.00
3912;DHT22;1971;51.778;10.330;2023-06-22T08:33:06;24.00;1.00
3912;DHT22;1971;51.778;10.330;2023-06-22T08:35:42;24.00;1.00
3912;DHT22;1971;51.778;10.330;2023-06-22T08:38:12;24.00;1.00
3912;DHT22;1971;51.778;10.330;2023-06-22T08:40:44;24.10;1.00
3912;DHT22;1971;51.778;10.330;2023-06-22T08:43:14;24.40;1.00
3912;DHT22;1971;51.778;10.330;2023-06-22T08:45:45;24.70;1.00
3912;DHT22;1971;51.778;10.330;2023-06-22T08:48:17;25.00;1.00
3912;DHT22;1971;51.778;10.330;2023-06-22T08:50:47;25.00;1.00
3912;DHT22;1971;51.778;10.330;2023-06-22T08:53:17;25.20;1.00
3912;DHT22;1971;51.778;10.330;2023-06-22T08:55:48;25.20;1.00
3912;DHT22;1971;51.778;10.330;2023-06-22T08:58:18;25.30;1.00
3912;DHT22;1971;51.778;10.330;2023-06-22T09:00:48;25.00;1.00
3912;DHT22;1971;51.778;10.330;2023-06-22T09:03:21;25.00;1.00
3912;DHT22;1971;51.778;10.330;2023-06-22T09:05:54;25.10;1.00
3912;DHT22;1971;51.778;10.330;2023-06-22T09:08:24;25.20;1.00
3912;DHT22;1971;51.778;10.330;2023-06-22T09:10:54;25.30;1.00
3912;DHT22;1971;51.778;10.330;2023-06-22T09:13:24;25.70;1.00
3912;DHT22;1971;51.778;10.330;2023-06-22T09:15:54;25.80;99.90
3912;DHT22;1971;51.778;10.330;2023-06-22T09:18:27;25.80;99.90
3912;DHT22;1971;51.778;10.330;2023-06-22T09:20:57;25.90;99.90
3912;DHT22;1971;51.778;10.330;2023-06-22T09:23:27;26.00;99.90
3912;DHT22;1971;51.778;10.330;2023-06-22T09:25:57;26.00;99.90
3912;DHT22;1971;51.778;10.330;2023-06-22T09:28:27;26.10;99.90
3912;DHT22;1971;51.778;10.330;2023-06-22T09:30:57;25.90;99.90
3912;DHT22;1971;51.778;10.330;2023-06-22T09:33:30;25.50;99.90
3912;DHT22;1971;51.778;10.330;2023-06-22T09:36:00;25.20;99.90
3912;DHT22;1971;51.778;10.330;2023-06-22T09:38:30;24.80;99.90
3912;DHT22;1971;51.778;10.330;2023-06-22T09:41:00;24.70;99.90
3912;DHT22;1971;51.778;10.330;2023-06-22T09:43:32;24.50;99.90
3912;DHT22;1971;51.778;10.330;2023-06-22T09:46:03;24.50;99.90
3912;DHT22;1971;51.778;10.330;2023-06-22T09:48:36;24.60;99.90
3912;DHT22;1971;51.778;10.330;2023-06-22T09:51:06;24.90;99.90
3912;DHT22;1971;51.778;10.330;2023-06-22T09:53:36;25.20;99.90
3912;DHT22;1971;51.778;10.330;2023-06-22T09:56:06;25.30;99.90
3912;DHT22;1971;51.778;10.330;2023-06-22T09:58:42;25.40;99.90
3912;DHT22;1971;51.778;10.330;2023-06-22T10:01:13;25.20;99.90
3912;DHT22;1971;51.778;10.330;2023-06-22T10:03:46;25.40;99.90
3912;DHT22;1971;51.778;10.330;2023-06-22T10:06:17;25.80;99.90
3912;DHT22;1971;51.778;10.330;2023-06-22T10:08:47;26.00;99.90
3912;DHT22;1971;51.778;10.330;2023-06-22T10:11:17;25.80;99.90
3912;DHT22;1971;51.778;10.330;2023-06-22T10:13:49;26.10;99.90
3912;DHT22;1971;51.778;10.330;2023-06-22T10:16:20;26.40;99.90
3912;DHT22;1971;51.778;10.330;2023-06-22T10:18:53;26.60;99.90
3912;DHT22;1971;51.778;10.330;2023-06-22T10:21:23;26.30;99.90
3912;DHT22;1971;51.778;10.330;2023-06-22T10:23:54;26.20;99.90
3912;DHT22;1971;51.778;10.330;2023-06-22T10:26:24;26.50;99.90
3912;DHT22;1971;51.778;10.330;2023-06-22T10:28:56;26.40;99.90
3912;DHT22;1971;51.778;10.330;2023-06-22T10:31:33;26.50;99.90
3912;DHT22;1971;51.778;10.330;2023-06-22T10:34:06;26.30;99.90
3912;DHT22;1971;51.778;10.330;2023-06-22T10:36:36;26.00;99.90
3912;DHT22;1971;51.778;10.330;2023-06-22T10:39:06;25.90;99.90
3912;DHT22;1971;51.778;10.330;2023-06-22T10:41:36;25.90;99.90
3912;DHT22;1971;51.778;10.330;2023-06-22T10:44:06;25.80;99.90
3912;DHT22;1971;51.778;10.330;2023-06-22T10:46:36;26.10;99.90
3912;DHT22;1971;51.778;10.330;2023-06-22T10:49:09;26.60;99.90
3912;DHT22;1971;51.778;10.330;2023-06-22T10:51:39;26.80;99.90
3912;DHT22;1971;51.778;10.330;2023-06-22T10:54:09;26.70;99.90
3912;DHT22;1971;51.778;10.330;2023-06-22T10:56:40;26.60;99.90
3912;DHT22;1971;51.778;10.330;2023-06-22T10:59:10;26.60;99.90
3912;DHT22;1971;51.778;10.330;2023-06-22T11:01:40;26.60;99.90
3912;DHT22;1971;51.778;10.330;2023-06-22T11:04:13;26.70;99.90
3912;DHT22;1971;51.778;10.330;2023-06-22T11:06:44;27.00;99.90
3912;DHT22;1971;51.778;10.330;2023-06-22T11:09:14;27.30;99.90
3912;DHT22;1971;51.778;10.330;2023-06-22T11:11:56;27.80;99.90
3912;DHT22;1971;51.778;10.330;2023-06-22T11:14:26;27.60;99.90
3912;DHT22;1971;51.778;10.330;2023-06-22T11:16:57;28.20;99.90
3912;DHT22;1971;51.778;10.330;2023-06-22T11:19:30;28.20;99.90
3912;DHT22;1971;51.778;10.330;2023-06-22T11:22:00;28.50;99.90
3912;DHT22;1971;51.778;10.330;2023-06-22T11:24:30;28.50;99.90
3912;DHT22;1971;51.778;10.330;2023-06-22T11:27:00;28.10;99.90
3912;DHT22;1971;51.778;10.330;2023-06-22T11:29:31;28.10;99.90
3912;DHT22;1971;51.778;10.330;2023-06-22T11:32:06;27.90;99.90
3912;DHT22;1971;51.778;10.330;2023-06-22T11:34:42;27.70;99.90
3912;DHT22;1971;51.778;10.330;2023-06-22T11:37:12;27.50;99.90
3912;DHT22;1971;51.778;10.330;2023-06-22T11:39:42;27.10;99.90
3912;DHT22;1971;51.778;10.330;2023-06-22T11:42:25;26.60;99.90
3912;DHT22;1971;51.778;10.330;2023-06-22T11:44:55;26.40;99.90
3912;DHT22;1971;51.778;10.330;2023-06-22T11:47:26;26.40;99.90
3912;DHT22;1971;51.778;10.330;2023-06-22T11:49:58;26.60;99.90
3912;DHT22;1971;51.778;10.330;2023-06-22T11:52:28;26.50;99.90
3912;DHT22;1971;51.778;10.330;2023-06-22T11:54:59;26.40;99.90
3912;DHT22;1971;51.778;10.330;2023-06-22T11:57:32;26.70;99.90
3912;DHT22;1971;51.778;10.330;2023-06-22T12:00:02;27.10;99.90
3912;DHT22;1971;51.778;10.330;2023-06-22T12:02:42;27.60;99.90
3912;DHT22;1971;51.778;10.330;2023-06-22T12:05:16;28.00;99.90
3912;DHT22;1971;51.778;10.330;2023-06-22T12:07:46;28.50;99.90
3912;DHT22;1971;51.778;10.330;2023-06-22T12:10:17;28.40;99.90
3912;DHT22;1971;51.778;10.330;2023-06-22T12:12:47;28.60;99.90
3912;DHT22;1971;51.778;10.330;2023-06-22T12:15:18;29.00;99.90
3912;DHT22;1971;51.778;10.330;2023-06-22T12:17:47;28.80;99.90
3912;DHT22;1971;51.778;10.330;2023-06-22T12:20:20;28.40;99.90
3912;DHT22;1971;51.778;10.330;2023-06-22T12:22:52;28.00;99.90
3912;DHT22;1971;51.778;10.330;2023-06-22T12:25:23;27.50;99.90
3912;DHT22;1971;51.778;10.330;2023-06-22T12:27:53;27.30;99.90
3912;DHT22;1971;51.778;10.330;2023-06-22T12:30:25;27.30;99.90
3912;DHT22;1971;51.778;10.330;2023-06-22T12:32:56;27.20;99.90
3912;DHT22;1971;51.778;10.330;2023-06-22T12:35:28;27.40;99.90
3912;DHT22;1971;51.778;10.330;2023-06-22T12:37:58;27.40;99.90
3912;DHT22;1971;51.778;10.330;2023-06-22T12:40:29;27.20;99.90
3912;DHT22;1971;51.778;10.330;2023-06-22T12:43:00;27.40;99.90
3912;DHT22;1971;51.778;10.330;2023-06-22T12:45:30;27.40;99.90
3912;DHT22;1971;51.778;10.330;2023-06-22T12:48:01;27.10;99.90
3912;DHT22;1971;51.778;10.330;2023-06-22T12:50:34;27.10;99.90
3912;DHT22;1971;51.778;10.330;2023-06-22T12:53:04;26.90;99.90
3912;DHT22;1971;51.778;10.330;2023-06-22T12:55:34;27.00;99.90
3912;DHT22;1971;51.778;10.330;2023-06-22T12:58:04;27.50;99.90
3912;DHT22;1971;51.778;10.330;2023-06-22T13:00:34;27.60;99.90
3912;DHT22;1971;51.778;10.330;2023-06-22T13:03:04;27.30;99.90
3912;DHT22;1971;51.778;10.330;2023-06-22T13:05:37;27.10;99.90
3912;DHT22;1971;51.778;10.330;2023-06-22T13:08:07;27.20;99.90
3912;DHT22;1971;51.778;10.330;2023-06-22T13:10:39;27.40;99.90
3912;DHT22;1971;51.778;10.330;2023-06-22T13:13:09;27.40;99.90
3912;DHT22;1971;51.778;10.330;2023-06-22T13:15:39;27.40;99.90
3912;DHT22;1971;51.778;10.330;2023-06-22T13:18:09;27.50;99.90
3912;DHT22;1971;51.778;10.330;2023-06-22T13:20:42;27.50;99.90
3912;DHT22;1971;51.778;10.330;2023-06-22T13:23:12;27.50;99.90
3912;DHT22;1971;51.778;10.330;2023-06-22T13:25:42;27.60;99.90
3912;DHT22;1971;51.778;10.330;2023-06-22T13:28:12;27.40;99.90
3912;DHT22;1971;51.778;10.330;2023-06-22T13:30:54;27.10;99.90
3912;DHT22;1971;51.778;10.330;2023-06-22T13:33:24;27.00;99.90
3912;DHT22;1971;51.778;10.330;2023-06-22T13:35:57;26.80;99.90
3912;DHT22;1971;51.778;10.330;2023-06-22T13:38:27;26.70;99.90
3912;DHT22;1971;51.778;10.330;2023-06-22T13:40:58;26.60;99.90
3912;DHT22;1971;51.778;10.330;2023-06-22T13:43:28;26.60;99.90
3912;DHT22;1971;51.778;10.330;2023-06-22T13:45:59;26.70;99.90
3912;DHT22;1971;51.778;10.330;2023-06-22T13:48:29;26.70;99.90
3912;DHT22;1971;51.778;10.330;2023-06-22T13:51:02;27.10;99.90
3912;DHT22;1971;51.778;10.330;2023-06-22T13:53:32;27.70;99.90
3912;DHT22;1971;51.778;10.330;2023-06-22T13:56:02;27.90;99.90
3912;DHT22;1971;51.778;10.330;2023-06-22T13:58:32;27.90;99.90
3912;DHT22;1971;51.778;10.330;2023-06-22T14:01:02;27.90;99.90
3912;DHT22;1971;51.778;10.330;2023-06-22T14:03:32;28.10;99.90
3912;DHT22;1971;51.778;10.330;2023-06-22T14:06:05;28.10;99.90
3912;DHT22;1971;51.778;10.330;2023-06-22T14:08:37;28.10;99.90
3912;DHT22;1971;51.778;10.330;2023-06-22T14:11:08;28.10;99.90
3912;DHT22;1971;51.778;10.330;2023-06-22T14:13:38;27.70;99.90
3912;DHT22;1971;51.778;10.330;2023-06-22T14:16:10;27.20;99.90
3912;DHT22;1971;51.778;10.330;2023-06-22T14:18:40;26.90;99.90
3912;DHT22;1971;51.778;10.330;2023-06-22T14:21:13;26.70;99.90
3912;DHT22;1971;51.778;10.330;2023-06-22T14:23:43;26.60;99.90
3912;DHT22;1971;51.778;10.330;2023-06-22T14:26:16;26.70;99.90
3912;DHT22;1971;51.778;10.330;2023-06-22T14:28:47;26.90;99.90
3912;DHT22;1971;51.778;10.330;2023-06-22T14:31:18;27.10;99.90
3912;DHT22;1971;51.778;10.330;2023-06-22T14:33:50;27.10;99.90
3912;DHT22;1971;51.778;10.330;2023-06-22T14:36:22;27.00;99.90
3912;DHT22;1971;51.778;10.330;2023-06-22T14:38:52;26.70;99.90
3912;DHT22;1971;51.778;10.330;2023-06-22T14:41:22;26.60;99.90
3912;DHT22;1971;51.778;10.330;2023-06-22T14:43:52;26.50;99.90
3912;DHT22;1971;51.778;10.330;2023-06-22T14:46:23;26.40;99.90
3912;DHT22;1971;51.778;10.330;2023-06-22T14:48:53;26.20;99.90
3912;DHT22;1971;51.778;10.330;2023-06-22T14:51:26;25.80;99.90
3912;DHT22;1971;51.778;10.330;2023-06-22T14:53:56;25.60;99.90
3912;DHT22;1971;51.778;10.330;2023-06-22T14:56:26;25.60;99.90
3912;DHT22;1971;51.778;10.330;2023-06-22T14:58:58;25.50;99.90
3912;DHT22;1971;51.778;10.330;2023-06-22T15:01:29;25.50;99.90
3912;DHT22;1971;51.778;10.330;2023-06-22T15:03:59;25.60;99.90
3912;DHT22;1971;51.778;10.330;2023-06-22T15:06:32;25.30;99.90
3912;DHT22;1971;51.778;10.330;2023-06-22T15:09:03;25.20;99.90
3912;DHT22;1971;51.778;10.330;2023-06-22T15:11:33;25.10;99.90
3912;DHT22;1971;51.778;10.330;2023-06-22T15:14:03;24.90;99.90
3912;DHT22;1971;51.778;10.330;2023-06-22T15:16:35;24.90;99.90
3912;DHT22;1971;51.778;10.330;2023-06-22T15:19:05;24.80;99.90
3912;DHT22;1971;51.778;10.330;2023-06-22T15:21:39;24.70;99.90
3912;DHT22;1971;51.778;10.330;2023-06-22T15:24:09;24.60;99.90
3912;DHT22;1971;51.778;10.330;2023-06-22T15:26:39;24.40;99.90
3912;DHT22;1971;51.778;10.330;2023-06-22T15:29:10;24.40;99.90
3912;DHT22;1971;51.778;10.330;2023-06-22T15:31:40;24.40;99.90
3912;DHT22;1971;51.778;10.330;2023-06-22T15:34:13;24.40;99.90
3912;DHT22;1971;51.778;10.330;2023-06-22T15:36:46;24.30;99.90
3912;DHT22;1971;51.778;10.330;2023-06-22T15:39:19;24.30;99.90
3912;DHT22;1971;51.778;10.330;2023-06-22T15:41:50;24.20;99.90
3912;DHT22;1971;51.778;10.330;2023-06-22T15:44:21;24.10;99.90
3912;DHT22;1971;51.778;10.330;2023-06-22T15:46:51;24.10;99.90
3912;DHT22;1971;51.778;10.330;2023-06-22T15:49:22;24.10;99.90
3912;DHT22;1971;51.778;10.330;2023-06-22T15:51:56;24.10;99.90
3912;DHT22;1971;51.778;10.330;2023-06-22T15:54:26;24.10;99.90
3912;DHT22;1971;51.778;10.330;2023-06-22T15:56:56;24.10;99.90
3912;DHT22;1971;51.778;10.330;2023-06-22T15:59:27;23.60;99.90
3912;DHT22;1971;51.778;10.330;2023-06-22T16:01:57;22.30;99.90
3912;DHT22;1971;51.778;10.330;2023-06-22T16:04:27;20.10;99.90
3912;DHT22;1971;51.778;10.330;2023-06-22T16:06:59;18.50;75.80
3912;DHT22;1971;51.778;10.330;2023-06-22T16:09:29;17.50;1.00
3912;DHT22;1971;51.778;10.330;2023-06-22T16:11:59;17.00;27.50
3912;DHT22;1971;51.778;10.330;2023-06-22T16:14:29;16.90;99.90
3912;DHT22;1971;51.778;10.330;2023-06-22T16:17:00;16.70;99.90
3912;DHT22;1971;51.778;10.330;2023-06-22T16:19:30;16.70;99.90
3912;DHT22;1971;51.778;10.330;2023-06-22T16:22:04;16.80;99.90
3912;DHT22;1971;51.778;10.330;2023-06-22T16:24:33;17.00;99.90
3912;DHT22;1971;51.778;10.330;2023-06-22T16:27:04;17.10;99.90